Time;durP1;ratioP1;P1;durP2;ratioP2;P2;SDS_P1;SDS_P2;PMS_P1;PMS_P2;Temp;Humidity;BMP_temperature;BMP_pressure;BME280_temperature;BME280_humidity;BME280_pressure;Samples;Min_cycle;Max_cycle;Signal;HPM_P1;HPM_P2
2022/11/03 00:01:39;;;;;;;5.18;3.67;;;0.80;94.60;;;;;;5010261;28;20065;-84
2022/11/03 00:04:07;;;;;;;4.68;2.97;;;0.70;94.50;;;;;;5014211;28;20475;-81
2022/11/03 00:06:34;;;;;;;4.03;3.63;;;0.60;94.70;;;;;;5003974;28;20019;-81
2022/11/03 00:09:02;;;;;;;4.73;3.87;;;0.50;94.90;;;;;;5007078;28;20166;-84
2022/11/03 00:11:30;;;;;;;5.70;3.92;;;0.50;95.00;;;;;;5000242;28;20022;-84
2022/11/03 00:13:57;;;;;;;4.50;4.10;;;0.40;95.10;;;;;;4997210;28;20030;-82
2022/11/03 00:16:22;;;;;;;5.57;3.83;;;0.40;95.20;;;;;;5010511;28;20030;-82
2022/11/03 00:18:49;;;;;;;5.07;4.15;;;0.40;95.20;;;;;;5001614;28;20085;-82
2022/11/03 00:21:15;;;;;;;6.00;3.10;;;0.40;95.30;;;;;;5008324;28;20033;-84
2022/11/03 00:23:43;;;;;;;5.03;3.35;;;0.40;95.40;;;;;;5002440;28;20031;-80
2022/11/03 00:26:16;;;;;;;5.40;3.50;;;0.50;95.30;;;;;;5000544;28;20496;-82
2022/11/03 00:28:44;;;;;;;3.90;3.47;;;0.50;95.30;;;;;;5001860;28;20026;-82
2022/11/03 00:31:19;;;;;;;7.10;4.22;;;0.40;95.40;;;;;;5005667;28;20018;-83
2022/11/03 00:33:45;;;;;;;3.88;3.47;;;0.50;95.50;;;;;;5014557;28;20046;-84
2022/11/03 00:36:14;;;;;;;3.90;3.47;;;0.50;95.50;;;;;;5009507;28;20034;-82
2022/11/03 00:38:40;;;;;;;4.93;3.58;;;0.50;95.50;;;;;;5005797;28;20022;-82
2022/11/03 00:41:06;;;;;;;3.38;2.75;;;0.60;95.50;;;;;;5004810;28;20383;-84
2022/11/03 00:43:34;;;;;;;3.22;2.90;;;0.60;95.50;;;;;;5007619;28;20030;-84
2022/11/03 00:46:01;;;;;;;3.90;3.53;;;0.70;95.30;;;;;;5008205;28;20487;-84
2022/11/03 00:48:29;;;;;;;8.98;3.25;;;0.70;95.30;;;;;;5015280;28;20018;-83
2022/11/03 00:51:14;;;;;;;2.95;2.60;;;0.70;95.20;;;;;;5024155;28;20580;-84
2022/11/03 00:53:45;;;;;;;3.22;2.78;;;0.70;95.20;;;;;;5018283;28;20036;-82
2022/11/03 00:56:32;;;;;;;3.30;2.80;;;0.70;95.10;;;;;;5017945;28;20491;-83
2022/11/03 00:58:59;;;;;;;4.30;2.95;;;0.60;95.10;;;;;;5014448;28;20030;-84
2022/11/03 01:01:26;;;;;;;;;;;0.70;95.20;;;;;;5036849;28;20036;-83
2022/11/03 01:06:52;;;;;;;4.50;2.88;;;0.60;95.10;;;;;;4998608;28;20053;-83
2022/11/03 01:09:38;;;;;;;4.32;3.17;;;0.70;95.20;;;;;;5012210;28;20033;-85
2022/11/03 01:12:18;;;;;;;3.55;3.25;;;0.70;95.20;;;;;;5014036;28;20026;-84
2022/11/03 01:14:53;;;;;;;2.80;2.60;;;0.70;95.10;;;;;;5000138;28;20077;-83
2022/11/03 01:17:25;;;;;;;3.28;2.42;;;0.60;95.00;;;;;;5001750;28;20057;-85
2022/11/03 01:19:51;;;;;;;4.10;2.15;;;0.60;95.00;;;;;;5003580;28;20089;-84
2022/11/03 01:22:18;;;;;;;3.28;2.55;;;0.50;95.10;;;;;;5007938;28;20022;-84
2022/11/03 01:24:44;;;;;;;4.07;3.22;;;0.50;95.10;;;;;;5028363;28;20056;-85
2022/11/03 01:27:13;;;;;;;4.10;3.55;;;0.50;95.10;;;;;;5013061;28;20049;-83
2022/11/03 01:29:40;;;;;;;3.17;2.80;;;0.50;95.10;;;;;;5005119;28;20049;-85
2022/11/03 01:32:07;;;;;;;4.33;2.63;;;0.40;95.00;;;;;;5008717;28;20038;-84
2022/11/03 01:34:33;;;;;;;3.83;2.70;;;0.40;95.00;;;;;;5004702;28;20491;-82
2022/11/03 01:36:59;;;;;;;3.70;2.55;;;0.30;95.00;;;;;;5013455;28;20042;-83
2022/11/03 01:39:24;;;;;;;2.75;2.17;;;0.40;95.20;;;;;;5001594;28;20061;-83
2022/11/03 01:41:51;;;;;;;3.42;2.88;;;0.40;95.10;;;;;;4997039;28;20450;-82
2022/11/03 01:44:17;;;;;;;3.70;3.33;;;0.40;95.10;;;;;;5003268;28;20472;-82
2022/11/03 01:47:01;;;;;;;4.00;2.95;;;0.40;94.90;;;;;;5003847;28;20027;-83
2022/11/03 01:49:40;;;;;;;3.58;3.13;;;0.30;95.00;;;;;;4999700;28;20046;-82
2022/11/03 01:52:16;;;;;;;3.20;2.90;;;0.30;95.20;;;;;;5027267;28;20163;-81
2022/11/03 01:54:45;;;;;;;3.25;2.58;;;0.30;95.30;;;;;;5022985;28;20037;-82
2022/11/03 01:57:18;;;;;;;5.25;2.97;;;0.40;95.30;;;;;;5006187;28;20022;-83
2022/11/03 01:59:47;;;;;;;4.47;2.95;;;0.40;95.30;;;;;;5009349;28;20022;-83
2022/11/03 02:02:13;;;;;;;3.38;3.08;;;0.40;95.20;;;;;;4997692;28;20026;-81
2022/11/03 02:04:41;;;;;;;2.35;1.90;;;0.40;95.20;;;;;;5010198;28;20480;-82
2022/11/03 02:07:40;;;;;;;4.93;2.65;;;0.40;95.10;;;;;;5009322;28;20018;-84
2022/11/03 02:10:08;;;;;;;3.70;2.50;;;0.30;95.10;;;;;;4995452;28;20023;-83
2022/11/03 02:12:35;;;;;;;6.53;2.95;;;0.20;95.10;;;;;;4998691;28;20067;-82
2022/11/03 02:15:09;;;;;;;2.97;2.30;;;0.20;95.20;;;;;;5001725;28;20134;-82
2022/11/03 02:17:36;;;;;;;4.07;2.60;;;0.20;95.40;;;;;;5013759;28;20034;-81
2022/11/03 02:20:13;;;;;;;3.38;2.67;;;0.10;95.30;;;;;;5021387;28;20472;-81
2022/11/03 02:23:10;;;;;;;3.92;2.28;;;0.20;95.40;;;;;;5000934;28;20033;-82
2022/11/03 02:25:43;;;;;;;3.00;2.30;;;0.10;95.40;;;;;;5003753;28;20023;-83
2022/11/03 02:28:11;;;;;;;2.40;1.80;;;0.10;95.50;;;;;;5009414;28;20014;-82
2022/11/03 02:30:59;;;;;;;2.47;1.83;;;0.10;95.60;;;;;;4998960;28;20030;-84
2022/11/03 02:33:24;;;;;;;2.53;2.13;;;0.10;95.60;;;;;;5002163;28;20056;-83
2022/11/03 02:35:58;;;;;;;4.20;2.20;;;0.10;95.50;;;;;;4997525;28;20484;-83
2022/11/03 02:38:29;;;;;;;3.15;1.90;;;0.00;95.30;;;;;;5011146;28;20437;-83
2022/11/03 02:41:05;;;;;;;4.28;2.20;;;-0.10;95.40;;;;;;4998185;28;20015;-83
2022/11/03 02:43:31;;;;;;;2.53;1.90;;;-0.10;95.60;;;;;;5004168;28;20037;-82
2022/11/03 02:45:57;;;;;;;4.60;2.42;;;-0.20;95.60;;;;;;4999259;28;20388;-83
2022/11/03 02:48:23;;;;;;;2.42;2.00;;;-0.20;95.70;;;;;;5019950;28;20025;-83
2022/11/03 02:50:49;;;;;;;3.85;1.98;;;-0.20;95.80;;;;;;5025351;28;20045;-84
2022/11/03 02:53:15;;;;;;;5.05;2.80;;;-0.30;95.80;;;;;;5026582;28;20037;-83
2022/11/03 02:56:05;;;;;;;4.50;2.58;;;-0.30;95.80;;;;;;5007411;28;20041;-81
2022/11/03 02:58:45;;;;;;;5.00;3.47;;;-0.40;95.70;;;;;;5015403;28;20027;-83
2022/11/03 03:01:13;;;;;;;2.38;1.95;;;-0.40;95.80;;;;;;4997058;28;20044;-83
2022/11/03 03:03:58;;;;;;;5.20;2.13;;;-0.50;95.90;;;;;;4995459;28;20027;-82
2022/11/03 03:06:27;;;;;;;3.55;2.30;;;-0.50;96.00;;;;;;4997676;28;20390;-83
2022/11/03 03:08:57;;;;;;;3.97;2.30;;;-0.50;96.00;;;;;;4995708;28;20049;-83
2022/11/03 03:11:35;;;;;;;3.25;2.38;;;-0.50;96.10;;;;;;4998050;28;20065;-82
2022/11/03 03:14:15;;;;;;;3.03;2.05;;;-0.50;96.20;;;;;;4996267;28;20026;-83
2022/11/03 03:16:47;;;;;;;2.97;2.10;;;-0.60;96.50;;;;;;4998852;28;20711;-82
2022/11/03 03:19:19;;;;;;;5.32;2.53;;;-0.60;96.30;;;;;;4999108;28;20511;-81
2022/11/03 03:21:48;;;;;;;3.33;2.95;;;-0.60;96.40;;;;;;4999312;28;20019;-80
2022/11/03 03:24:39;;;;;;;2.50;2.30;;;-0.60;96.50;;;;;;5002475;28;20266;-80
2022/11/03 03:27:10;;;;;;;3.33;2.35;;;-0.60;96.30;;;;;;5006198;28;20026;-81
2022/11/03 03:29:49;;;;;;;4.22;2.65;;;-0.60;96.20;;;;;;5005166;28;20018;-81
2022/11/03 03:32:18;;;;;;;5.95;3.63;;;-0.60;96.30;;;;;;5015674;28;20040;-80
2022/11/03 03:34:45;;;;;;;2.60;2.00;;;-0.60;96.40;;;;;;5011341;28;20032;-82
2022/11/03 03:37:12;;;;;;;3.30;2.95;;;-0.50;96.40;;;;;;5005475;28;20018;-82
2022/11/03 03:39:41;;;;;;;;;;;-0.50;96.30;;;;;;5012642;28;20045;-80
2022/11/03 03:42:09;;;;;;;5.40;2.13;;;-0.50;96.20;;;;;;5003345;28;19928;-81
2022/11/03 03:44:38;;;;;;;2.67;2.42;;;-0.40;96.30;;;;;;5006108;28;20022;-82
2022/11/03 03:47:10;;;;;;;3.58;2.78;;;-0.40;96.60;;;;;;5007616;28;20490;-81
2022/11/03 03:49:36;;;;;;;3.47;3.10;;;-0.30;96.30;;;;;;5008901;28;20033;-81
2022/11/03 03:52:03;;;;;;;4.70;2.97;;;-0.30;96.20;;;;;;5009291;28;20502;-82
2022/11/03 03:54:29;;;;;;;4.57;2.50;;;-0.20;96.10;;;;;;4997758;28;20021;-81
2022/11/03 03:57:10;;;;;;;3.35;2.65;;;-0.20;96.10;;;;;;5001962;28;20049;-81
2022/11/03 03:59:36;;;;;;;2.97;2.53;;;-0.20;95.90;;;;;;5010772;28;20048;-81
2022/11/03 04:02:02;;;;;;;4.22;2.50;;;-0.30;95.70;;;;;;5007701;28;20113;-82
2022/11/03 04:04:28;;;;;;;5.25;1.98;;;-0.30;95.70;;;;;;4993940;28;20492;-82
2022/11/03 04:07:45;;;;;;;3.72;2.38;;;-0.40;95.80;;;;;;5000707;28;20026;-82
2022/11/03 04:09:39;;;;;;;3.45;2.67;;;-0.40;95.90;;;;;;5001661;28;20029;-82
2022/11/03 04:23:12;;;;;;;6.30;3.35;;;-0.50;96.10;;;;;;5015881;28;20028;-82
2022/11/03 04:25:38;;;;;;;4.63;2.75;;;-0.40;96.10;;;;;;5010631;28;20029;-84
2022/11/03 04:28:14;;;;;;;4.22;2.97;;;-0.40;96.00;;;;;;5013118;28;20022;-83
2022/11/03 04:30:40;;;;;;;3.35;3.00;;;-0.30;96.00;;;;;;5012457;28;20376;-84
2022/11/03 04:33:19;;;;;;;4.38;2.78;;;-0.30;96.00;;;;;;5015731;28;20078;-83
2022/11/03 04:35:46;;;;;;;3.30;2.70;;;-0.20;96.00;;;;;;5027728;28;20037;-83
2022/11/03 04:38:12;;;;;;;;;;;-0.30;95.90;;;;;;5014471;28;20019;-80
2022/11/03 04:40:46;;;;;;;4.28;2.72;;;-0.20;95.70;;;;;;5020450;28;19917;-84
2022/11/03 04:43:17;;;;;;;2.78;2.28;;;-0.30;95.50;;;;;;5014640;28;20040;-84
2022/11/03 04:45:45;;;;;;;2.63;2.13;;;-0.30;95.70;;;;;;5009676;28;20022;-83
2022/11/03 04:48:22;;;;;;;4.90;3.67;;;-0.30;95.70;;;;;;5007224;28;20156;-82
2022/11/03 04:50:52;;;;;;;2.50;2.15;;;-0.20;95.80;;;;;;5004962;28;20053;-81
2022/11/03 04:53:20;;;;;;;3.75;2.72;;;-0.20;95.70;;;;;;5019526;28;20022;-84
2022/11/03 04:55:49;;;;;;;6.43;3.13;;;-0.20;95.60;;;;;;5012531;28;20097;-84
2022/11/03 04:58:22;;;;;;;4.60;2.65;;;-0.20;95.40;;;;;;5025808;28;20506;-83
2022/11/03 05:00:57;;;;;;;5.85;3.25;;;-0.10;95.60;;;;;;5016939;28;20034;-84
2022/11/03 05:03:29;;;;;;;3.60;2.58;;;0.00;95.60;;;;;;5008593;28;20076;-83
2022/11/03 05:05:56;;;;;;;5.10;2.38;;;0.00;95.60;;;;;;4998634;28;20030;-83
2022/11/03 05:08:23;;;;;;;3.63;2.47;;;0.10;95.40;;;;;;4998539;28;20022;-84
2022/11/03 05:10:49;;;;;;;5.22;2.70;;;0.10;95.30;;;;;;5013315;28;20125;-84
2022/11/03 05:13:24;;;;;;;2.63;1.95;;;0.10;95.30;;;;;;4999526;28;20078;-84
2022/11/03 05:15:53;;;;;;;3.78;2.33;;;0.20;95.20;;;;;;5003751;28;20030;-84
2022/11/03 05:18:30;;;;;;;5.07;2.28;;;0.20;95.20;;;;;;5001996;28;20027;-83
2022/11/03 05:21:01;;;;;;;2.58;1.80;;;0.20;95.00;;;;;;4999501;28;20030;-84
2022/11/03 05:23:30;;;;;;;4.72;2.38;;;0.10;94.80;;;;;;5007162;28;20415;-82
2022/11/03 05:26:07;;;;;;;3.13;2.22;;;0.10;95.00;;;;;;5013435;28;20030;-83
2022/11/03 05:29:10;;;;;;;2.00;1.77;;;0.10;95.10;;;;;;5013067;28;20064;-81
2022/11/03 05:31:51;;;;;;;;;;;;;;;;;;;;;
2022/11/03 05:34:59;;;;;;;2.33;2.03;;;0.00;94.50;;;;;;5014667;28;20387;-81
2022/11/03 05:37:34;;;;;;;3.28;2.30;;;-0.10;94.60;;;;;;5022617;28;20092;-84
2022/11/03 05:42:57;;;;;;;4.70;2.33;;;-0.20;94.90;;;;;;5007765;28;20521;-80
2022/11/03 05:45:30;;;;;;;6.78;2.65;;;-0.20;95.00;;;;;;5012231;28;20038;-81
2022/11/03 05:47:57;;;;;;;3.47;2.15;;;-0.30;95.00;;;;;;5011366;28;20025;-82
2022/11/03 05:50:25;;;;;;;3.23;2.53;;;-0.40;95.20;;;;;;5012863;28;20177;-83
2022/11/03 05:52:55;;;;;;;3.80;2.35;;;-0.50;95.30;;;;;;5016647;28;20057;-83
2022/11/03 05:55:28;;;;;;;5.32;2.40;;;-0.50;95.50;;;;;;5016184;28;20041;-82
2022/11/03 05:57:59;;;;;;;3.33;2.72;;;-0.50;95.60;;;;;;4992717;28;20035;-83
2022/11/03 06:00:29;;;;;;;3.35;2.70;;;-0.60;95.60;;;;;;5005911;28;20451;-84
2022/11/03 06:02:55;;;;;;;3.22;2.58;;;-0.60;95.80;;;;;;5028115;28;20492;-83
2022/11/03 06:05:23;;;;;;;4.60;2.35;;;-0.60;96.00;;;;;;5012344;28;20077;-85
2022/11/03 06:07:51;;;;;;;7.47;4.15;;;-0.50;96.10;;;;;;5013598;28;20109;-85
2022/11/03 06:10:30;;;;;;;13.13;6.57;;;-0.40;96.10;;;;;;5011009;28;20065;-84
2022/11/03 06:13:03;;;;;;;6.38;4.93;;;-0.30;96.00;;;;;;5007642;28;20573;-83
2022/11/03 06:15:34;;;;;;;10.73;5.43;;;-0.30;95.90;;;;;;5000685;28;20030;-84
2022/11/03 06:18:29;;;;;;;4.93;3.42;;;-0.20;95.90;;;;;;5015252;28;20056;-86
2022/11/03 06:20:58;;;;;;;8.95;3.15;;;-0.10;95.90;;;;;;4999628;28;20507;-85
2022/11/03 06:23:24;;;;;;;4.55;2.67;;;0.10;95.70;;;;;;4999841;28;20034;-85
2022/11/03 06:25:55;;;;;;;4.75;3.38;;;0.20;95.60;;;;;;5006035;28;20553;-86
2022/11/03 06:28:29;;;;;;;4.93;3.90;;;0.20;95.20;;;;;;5006311;28;20630;-85
2022/11/03 06:30:56;;;;;;;10.77;5.10;;;0.20;95.20;;;;;;5011322;28;20026;-85
2022/11/03 06:33:28;;;;;;;4.90;2.88;;;0.20;95.20;;;;;;5009730;28;20407;-87
2022/11/03 06:35:59;;;;;;;3.97;2.80;;;0.30;95.10;;;;;;5008234;28;20089;-87
2022/11/03 06:38:30;;;;;;;4.55;2.97;;;0.40;95.10;;;;;;5007263;28;20076;-84
2022/11/03 06:40:57;;;;;;;4.45;2.92;;;0.40;94.80;;;;;;5009729;28;20121;-82
2022/11/03 06:43:27;;;;;;;4.95;3.28;;;0.40;94.80;;;;;;5008575;28;20018;-86
2022/11/03 06:46:07;;;;;;;2.65;2.33;;;0.50;94.90;;;;;;5006452;28;20321;-82
2022/11/03 06:48:34;;;;;;;6.38;3.28;;;0.50;94.60;;;;;;5020228;28;20052;-83
2022/11/03 06:51:01;;;;;;;5.32;3.13;;;0.50;94.50;;;;;;5008164;28;20811;-85
2022/11/03 06:53:30;;;;;;;7.18;3.88;;;0.50;94.40;;;;;;5001557;28;20030;-85
2022/11/03 06:55:56;;;;;;;6.55;3.15;;;0.40;94.20;;;;;;5006068;28;20033;-85
2022/11/03 06:58:27;;;;;;;5.30;3.30;;;0.30;94.10;;;;;;5019557;28;20029;-84
2022/11/03 07:00:57;;;;;;;7.68;3.17;;;0.30;94.20;;;;;;5005550;28;20487;-84
2022/11/03 07:03:29;;;;;;;8.15;4.65;;;0.30;94.40;;;;;;5007142;28;20026;-84
2022/11/03 07:05:57;;;;;;;11.48;4.47;;;0.30;94.40;;;;;;5009371;28;20926;-84
2022/11/03 07:08:31;;;;;;;10.55;4.72;;;0.30;94.80;;;;;;4999754;28;20018;-84
2022/11/03 07:11:04;;;;;;;8.25;4.47;;;0.40;94.50;;;;;;5011292;28;20554;-85
2022/11/03 07:13:47;;;;;;;8.43;3.33;;;0.50;94.30;;;;;;5013414;28;20014;-85
2022/11/03 07:16:18;;;;;;;7.40;3.50;;;0.50;94.30;;;;;;5004946;28;20038;-84
2022/11/03 07:18:46;;;;;;;4.88;3.53;;;0.60;94.30;;;;;;5006904;28;20085;-87
2022/11/03 07:21:35;;;;;;;6.55;3.53;;;0.50;94.20;;;;;;5003071;28;20076;-85
2022/11/03 07:24:35;;;;;;;5.68;3.97;;;0.50;94.00;;;;;;5018747;28;20061;-86
2022/11/03 07:27:29;;;;;;;5.82;3.10;;;0.50;94.00;;;;;;4988344;28;20533;-84
2022/11/03 07:30:13;;;;;;;10.13;3.78;;;0.50;93.90;;;;;;5007851;28;20033;-83
2022/11/03 07:32:39;;;;;;;5.60;3.70;;;0.50;94.00;;;;;;5004621;28;20022;-83
2022/11/03 07:35:11;;;;;;;5.88;3.67;;;0.60;93.90;;;;;;5008802;28;20038;-83
2022/11/03 07:37:37;;;;;;;6.70;4.80;;;0.60;93.90;;;;;;5008988;28;20022;-84
2022/11/03 07:40:04;;;;;;;8.50;4.97;;;0.60;93.60;;;;;;5001256;28;20023;-84
2022/11/03 07:42:31;;;;;;;5.25;4.47;;;0.60;93.70;;;;;;5005735;28;20104;-83
2022/11/03 07:44:57;;;;;;;12.98;7.55;;;0.60;93.50;;;;;;5012659;28;20026;-84
2022/11/03 07:47:25;;;;;;;12.60;4.28;;;0.60;93.60;;;;;;5004970;28;20026;-85
2022/11/03 07:49:51;;;;;;;9.48;4.82;;;0.70;93.60;;;;;;4995933;28;20039;-84
2022/11/03 07:52:24;;;;;;;7.78;4.75;;;0.70;93.40;;;;;;5002285;28;20037;-83
2022/11/03 07:54:53;;;;;;;6.90;5.03;;;0.70;93.30;;;;;;4999429;28;20050;-82
2022/11/03 07:57:27;;;;;;;7.18;4.65;;;0.70;93.40;;;;;;5012339;28;20388;-83
2022/11/03 07:59:58;;;;;;;7.32;5.38;;;0.80;93.40;;;;;;5008773;28;20058;-83
2022/11/03 08:02:32;;;;;;;12.80;5.80;;;0.80;93.40;;;;;;4999616;28;20038;-84
2022/11/03 08:04:59;;;;;;;9.20;5.57;;;0.90;93.40;;;;;;5003617;28;20174;-84
2022/11/03 08:07:28;;;;;;;9.77;4.35;;;0.90;93.40;;;;;;4997980;28;20049;-82
2022/11/03 08:09:55;;;;;;;9.63;5.43;;;1.00;93.50;;;;;;4998708;28;20066;-82
2022/11/03 08:12:21;;;;;;;8.50;3.95;;;1.00;93.30;;;;;;5014186;28;20025;-84
2022/11/03 08:14:47;;;;;;;9.73;5.32;;;1.00;93.20;;;;;;5019866;28;20021;-85
2022/11/03 08:17:13;;;;;;;9.23;5.75;;;1.00;93.00;;;;;;5008039;28;20033;-88
2022/11/03 08:19:39;;;;;;;8.70;6.63;;;0.90;93.20;;;;;;5010543;28;20022;-85
2022/11/03 08:22:05;;;;;;;8.10;5.90;;;0.90;93.10;;;;;;5003493;28;20030;-84
2022/11/03 08:24:31;;;;;;;15.38;6.97;;;0.90;93.00;;;;;;5011471;28;20030;-84
2022/11/03 08:27:02;;;;;;;10.30;6.15;;;0.80;93.20;;;;;;5002211;28;20391;-87
2022/11/03 08:29:28;;;;;;;11.50;6.57;;;0.80;93.10;;;;;;5005850;28;20019;-84
2022/11/03 08:31:54;;;;;;;12.75;7.95;;;0.80;93.10;;;;;;5006589;28;20030;-86
2022/11/03 08:34:20;;;;;;;15.77;7.90;;;0.90;93.30;;;;;;4997347;28;20018;-81
2022/11/03 08:36:46;;;;;;;9.45;6.78;;;0.90;93.40;;;;;;4997113;28;20475;-83
2022/11/03 08:39:12;;;;;;;13.32;7.07;;;1.00;93.20;;;;;;5009796;28;20029;-82
2022/11/03 08:41:38;;;;;;;8.15;7.00;;;1.00;93.20;;;;;;5006581;28;20022;-82
2022/11/03 08:44:06;;;;;;;13.85;7.15;;;1.00;93.10;;;;;;5022759;28;20099;-82
2022/11/03 08:46:32;;;;;;;12.82;8.25;;;1.00;92.90;;;;;;5020933;28;20018;-83
2022/11/03 08:48:58;;;;;;;10.90;7.60;;;0.90;93.00;;;;;;5009272;28;20380;-83
2022/11/03 08:51:24;;;;;;;11.50;7.68;;;0.80;93.20;;;;;;5003770;28;20026;-83
2022/11/03 08:53:52;;;;;;;12.25;7.63;;;0.80;93.30;;;;;;5004571;28;20036;-84
2022/11/03 08:56:19;;;;;;;13.13;8.43;;;0.80;93.30;;;;;;5000777;28;20026;-83
2022/11/03 08:58:45;;;;;;;8.60;7.47;;;0.80;93.40;;;;;;5015761;28;20022;-82
2022/11/03 09:01:12;;;;;;;6.97;6.20;;;0.80;93.40;;;;;;5006456;28;20027;-86
2022/11/03 09:03:38;;;;;;;14.93;7.88;;;0.70;93.50;;;;;;4999574;28;20026;-83
2022/11/03 09:06:04;;;;;;;11.05;7.65;;;0.70;93.50;;;;;;4999190;28;20058;-83
2022/11/03 09:08:30;;;;;;;15.68;7.60;;;0.80;93.60;;;;;;5008189;28;20157;-81
2022/11/03 09:10:56;;;;;;;8.10;6.05;;;0.90;93.70;;;;;;5005577;28;20031;-84
2022/11/03 09:13:22;;;;;;;6.88;5.70;;;0.90;93.50;;;;;;5017229;28;20080;-84
2022/11/03 09:15:48;;;;;;;14.10;7.40;;;0.90;93.30;;;;;;5021040;28;20049;-84
2022/11/03 09:18:15;;;;;;;9.02;6.45;;;0.80;93.30;;;;;;5004225;28;20037;-83
2022/11/03 09:20:41;;;;;;;9.05;6.28;;;0.70;93.40;;;;;;5012648;28;20026;-86
2022/11/03 09:23:07;;;;;;;11.32;6.40;;;0.70;93.40;;;;;;5011639;28;20022;-84
2022/11/03 09:25:32;;;;;;;9.20;7.53;;;0.60;93.60;;;;;;5018234;28;20045;-84
2022/11/03 09:27:58;;;;;;;9.85;7.45;;;0.60;93.70;;;;;;5008721;28;20022;-84
2022/11/03 09:30:24;;;;;;;12.77;8.45;;;0.60;93.70;;;;;;5004784;28;20400;-81
2022/11/03 09:32:50;;;;;;;11.48;7.30;;;0.60;93.90;;;;;;4997858;28;20841;-82
2022/11/03 09:35:16;;;;;;;9.73;7.30;;;0.60;93.90;;;;;;5017754;28;20029;-81
2022/11/03 09:37:42;;;;;;;12.55;7.82;;;0.70;93.80;;;;;;5029603;28;20022;-86
2022/11/03 09:40:10;;;;;;;9.75;7.32;;;0.70;93.70;;;;;;5000209;28;20105;-82
2022/11/03 09:42:37;;;;;;;;;;;0.70;93.60;;;;;;4995944;28;20388;-82
2022/11/03 09:45:03;;;;;;;10.65;6.85;;;0.80;93.70;;;;;;4997891;28;20391;-85
2022/11/03 09:47:38;;;;;;;11.27;7.97;;;0.80;93.50;;;;;;4996830;28;20084;-84
2022/11/03 09:50:05;;;;;;;11.40;9.15;;;0.80;93.60;;;;;;4999657;28;20080;-83
2022/11/03 09:52:32;;;;;;;12.07;8.68;;;0.80;93.70;;;;;;5011049;28;20045;-82
2022/11/03 09:54:58;;;;;;;12.07;9.37;;;1.00;93.60;;;;;;5004844;28;20458;-83
2022/11/03 09:57:27;;;;;;;10.25;7.30;;;1.00;93.40;;;;;;5001774;28;20760;-84
2022/11/03 09:59:56;;;;;;;11.80;7.47;;;1.00;93.00;;;;;;5003631;28;20029;-83
2022/11/03 10:02:27;;;;;;;9.80;8.23;;;0.90;93.10;;;;;;5008932;28;20030;-83
2022/11/03 10:04:56;;;;;;;11.10;8.85;;;0.80;93.20;;;;;;5000301;28;20022;-86
2022/11/03 10:07:24;;;;;;;12.43;6.75;;;0.80;93.30;;;;;;5015492;28;20022;-84
2022/11/03 10:09:52;;;;;;;9.98;7.80;;;0.80;93.30;;;;;;5002341;28;20032;-82
2022/11/03 10:12:18;;;;;;;;;;;0.80;93.30;;;;;;5005584;28;20105;-85
2022/11/03 10:14:45;;;;;;;9.02;7.10;;;0.80;93.30;;;;;;4997435;28;20017;-83
2022/11/03 10:17:18;;;;;;;11.07;6.55;;;0.90;93.40;;;;;;5013107;28;20081;-82
2022/11/03 10:19:48;;;;;;;11.13;7.15;;;0.90;93.40;;;;;;5010460;28;20022;-83
2022/11/03 10:22:15;;;;;;;18.38;7.75;;;0.90;93.10;;;;;;5011276;28;20033;-83
2022/11/03 10:24:41;;;;;;;12.43;6.70;;;0.80;93.10;;;;;;5006234;28;20110;-84
2022/11/03 10:27:24;;;;;;;10.52;6.72;;;0.70;93.30;;;;;;5008995;28;20306;-85
2022/11/03 10:30:10;;;;;;;9.77;5.25;;;0.70;93.40;;;;;;5000039;28;20018;-88
2022/11/03 10:32:37;;;;;;;6.53;5.85;;;0.70;93.30;;;;;;5010095;28;20025;-84
2022/11/03 10:35:32;;;;;;;7.72;6.45;;;0.70;93.40;;;;;;5013953;28;20042;-85
2022/11/03 10:38:26;;;;;;;11.23;6.32;;;0.60;93.40;;;;;;5015021;28;20022;-82
2022/11/03 10:40:52;;;;;;;9.75;6.80;;;0.60;93.50;;;;;;5010835;28;20524;-83
2022/11/03 10:43:19;;;;;;;8.98;7.68;;;0.60;93.60;;;;;;5017706;28;20030;-84
2022/11/03 10:45:45;;;;;;;11.23;7.40;;;0.60;93.70;;;;;;5030587;28;20026;-83
2022/11/03 10:48:11;;;;;;;22.63;6.93;;;0.70;93.90;;;;;;5016711;28;20065;-84
2022/11/03 10:50:40;;;;;;;7.53;6.70;;;0.80;94.00;;;;;;5010270;28;20077;-81
2022/11/03 10:53:16;;;;;;;11.63;6.57;;;0.90;93.60;;;;;;5009977;28;20022;-86
2022/11/03 10:55:42;;;;;;;10.35;6.90;;;0.90;93.40;;;;;;5014738;28;20040;-87
2022/11/03 10:58:08;;;;;;;9.13;7.15;;;0.80;93.30;;;;;;5029415;28;20026;-85
2022/11/03 11:00:34;;;;;;;8.43;6.60;;;0.80;93.30;;;;;;5013884;28;20029;-82
2022/11/03 11:03:03;;;;;;;11.15;6.90;;;0.80;93.30;;;;;;4995956;28;20026;-80
2022/11/03 11:05:29;;;;;;;9.95;7.25;;;0.80;93.40;;;;;;5001831;28;20106;-85
2022/11/03 11:07:55;;;;;;;8.63;7.57;;;0.70;93.40;;;;;;5019742;28;20038;-82
2022/11/03 11:10:30;;;;;;;7.93;6.93;;;0.80;93.60;;;;;;5021671;28;20364;-82
2022/11/03 11:13:20;;;;;;;11.27;7.90;;;0.70;93.50;;;;;;4997679;28;20066;-84
2022/11/03 11:15:57;;;;;;;11.60;7.20;;;0.80;93.70;;;;;;4999275;28;20100;-83
2022/11/03 11:18:29;;;;;;;12.20;7.40;;;0.90;93.80;;;;;;5004380;28;20057;-85
2022/11/03 11:21:16;;;;;;;9.25;6.75;;;0.90;93.90;;;;;;4993773;28;20031;-84
2022/11/03 11:23:43;;;;;;;8.50;6.25;;;1.00;93.50;;;;;;4995959;28;20018;-86
2022/11/03 11:26:09;;;;;;;9.45;6.85;;;1.00;93.50;;;;;;5002065;28;20035;-85
2022/11/03 11:28:39;;;;;;;12.57;7.35;;;1.00;93.50;;;;;;4995702;28;20431;-86
2022/11/03 11:31:29;;;;;;;17.10;7.93;;;1.10;93.60;;;;;;5006775;28;20506;-89
2022/11/03 11:34:19;;;;;;;13.23;7.53;;;1.10;93.50;;;;;;5008319;28;20168;-84
2022/11/03 11:36:53;;;;;;;14.40;7.70;;;1.10;93.40;;;;;;5003157;28;20045;-82
2022/11/03 11:39:19;;;;;;;10.32;7.43;;;1.10;93.40;;;;;;5011782;28;20029;-85
2022/11/03 11:42:14;;;;;;;13.90;7.50;;;1.10;93.40;;;;;;5009995;28;20026;-83
2022/11/03 11:44:42;;;;;;;9.13;7.07;;;1.20;93.50;;;;;;5006424;28;20113;-84
2022/11/03 11:47:40;;;;;;;9.30;6.97;;;1.20;93.10;;;;;;5032762;28;20026;-82
2022/11/03 11:50:16;;;;;;;12.90;7.22;;;1.20;93.20;;;;;;5024724;28;20048;-82
2022/11/03 11:52:57;;;;;;;8.75;7.32;;;1.10;93.20;;;;;;5054794;28;20454;-82
2022/11/03 11:55:49;;;;;;;10.57;8.07;;;1.00;93.20;;;;;;5030333;28;20033;-83
2022/11/03 11:58:36;;;;;;;10.02;7.57;;;0.90;93.40;;;;;;5033472;28;20056;-80
2022/11/03 12:01:18;;;;;;;10.07;8.10;;;0.80;93.50;;;;;;5054886;28;20454;-84
2022/11/03 12:03:45;;;;;;;12.93;8.77;;;0.70;93.60;;;;;;5046041;28;20536;-83
2022/11/03 12:06:14;;;;;;;10.63;9.27;;;0.70;93.80;;;;;;5035922;28;20021;-84
2022/11/03 12:08:41;;;;;;;13.82;7.90;;;0.70;93.90;;;;;;5036158;28;20415;-84
2022/11/03 12:11:10;;;;;;;13.57;9.18;;;0.70;94.00;;;;;;5018531;28;20033;-81
2022/11/03 12:13:45;;;;;;;15.77;10.63;;;0.70;94.10;;;;;;5036099;28;20108;-82
2022/11/03 12:16:27;;;;;;;12.98;9.20;;;0.70;94.10;;;;;;5036189;28;20041;-81
2022/11/03 12:18:54;;;;;;;11.27;10.00;;;0.60;94.20;;;;;;5041989;28;20017;-84
2022/11/03 12:21:46;;;;;;;8.47;7.17;;;0.60;94.40;;;;;;5035832;28;20497;-83
2022/11/03 12:24:35;;;;;;;12.98;9.55;;;0.60;94.50;;;;;;5040126;28;20075;-83
2022/11/03 12:27:03;;;;;;;13.00;8.48;;;0.60;94.50;;;;;;5046300;28;20033;-83
2022/11/03 12:29:29;;;;;;;10.43;7.07;;;0.60;94.50;;;;;;5044056;28;20456;-88
2022/11/03 12:31:55;;;;;;;16.02;9.27;;;0.60;94.60;;;;;;5055367;28;20022;-83
2022/11/03 12:34:21;;;;;;;14.70;9.02;;;0.60;94.60;;;;;;5048339;28;20029;-84
2022/11/03 12:36:46;;;;;;;12.73;8.38;;;0.50;94.60;;;;;;5068892;28;20051;-84
2022/11/03 12:39:12;;;;;;;14.38;9.25;;;0.50;94.70;;;;;;5070237;28;20021;-83
2022/11/03 12:41:38;;;;;;;12.77;9.25;;;0.50;94.80;;;;;;5057148;28;20033;-85
2022/11/03 12:44:04;;;;;;;12.50;8.57;;;0.60;94.80;;;;;;5037873;28;20067;-82
2022/11/03 12:46:30;;;;;;;13.98;8.90;;;0.60;94.90;;;;;;5035941;28;20471;-85
2022/11/03 12:48:56;;;;;;;11.40;9.13;;;0.60;94.80;;;;;;5049106;28;20443;-82
2022/11/03 12:51:23;;;;;;;18.60;11.02;;;0.70;94.90;;;;;;5049086;28;20060;-83
2022/11/03 12:53:50;;;;;;;13.82;8.95;;;0.70;94.90;;;;;;5041673;28;20017;-83
2022/11/03 12:56:18;;;;;;;15.32;10.15;;;0.80;94.80;;;;;;5056765;28;20036;-84
2022/11/03 12:58:44;;;;;;;15.50;9.43;;;0.80;94.50;;;;;;5046675;28;20414;-82
2022/11/03 13:01:10;;;;;;;16.75;9.90;;;0.70;94.50;;;;;;5031645;28;20537;-81
2022/11/03 13:03:37;;;;;;;12.48;9.00;;;0.70;94.50;;;;;;5047221;28;20486;-86
2022/11/03 13:06:08;;;;;;;14.60;9.18;;;0.70;94.60;;;;;;5041688;28;20032;-85
2022/11/03 13:08:35;;;;;;;15.32;9.20;;;0.80;94.70;;;;;;5046211;28;20017;-83
2022/11/03 13:11:01;;;;;;;11.55;9.48;;;0.80;94.70;;;;;;5045601;28;20048;-86
2022/11/03 13:13:27;;;;;;;14.15;9.55;;;0.80;94.60;;;;;;5028315;28;20025;-84
2022/11/03 13:15:53;;;;;;;16.00;8.27;;;0.90;94.50;;;;;;5040160;28;20406;-85
2022/11/03 13:18:22;;;;;;;12.23;8.38;;;0.90;94.60;;;;;;5043136;28;20013;-87
2022/11/03 13:20:48;;;;;;;12.40;8.82;;;0.90;94.40;;;;;;5039617;28;20025;-88
2022/11/03 13:23:14;;;;;;;11.35;7.93;;;0.90;94.40;;;;;;5044977;28;20115;-83
2022/11/03 13:25:39;;;;;;;11.57;9.07;;;0.90;94.20;;;;;;5038818;28;20053;-84
2022/11/03 13:28:05;;;;;;;19.05;9.18;;;0.90;94.10;;;;;;5038543;28;20028;-86
2022/11/03 13:30:32;;;;;;;14.38;8.60;;;0.80;94.10;;;;;;5044484;28;20025;-83